Terminal Aerodrome Forecast
Issued by NWS

Current Version | Previous Version | Text Only | Print | Product List | Glossary On
Versions: 1 2 3 4 5 6 7 8 9 10 11 12 13
000
FTAK31 PAFA 241139
TAFAUN
TAF
PAUN 241139Z 2412/2512 08015KT P6SM VCSH BKN090
     FM241800 07011KT P6SM -SHRA OVC080
     FM250600 10009KT P6SM SCT080=

USA.gov is the U.S. government's official web portal to all federal, state and local government web resources and services.